Terminal Aerodrome Forecast
Issued by NWS

Home | Current Version | Previous Version | Text Only | Print | Product List | Glossary On
Versions: 1 2 3 4 5 6 7 8 9 10 11 12 13 14 15 16 17
000
FTUS44 KCRP 221700
TAFLRD
TAF
KLRD 221724Z 2218/2318 11011KT P6SM SCT035 BKN100
     FM230600 VRB04KT P6SM SCT030 BKN150
      TEMPO 2310/2314 5SM BR=

USA.gov is the U.S. government's official web portal to all federal, state and local government web resources and services.